sensor_id;sensor_type;location;lat;lon;timestamp;P1;durP1;ratioP1;P2;durP2;ratioP2
22922;SDS011;11627;51.322;22.816;2024-03-02T00:00:26;54.88;;;25.40;;
22922;SDS011;11627;51.322;22.816;2024-03-02T00:02:52;52.47;;;24.55;;
22922;SDS011;11627;51.322;22.816;2024-03-02T00:05:20;57.63;;;25.83;;
22922;SDS011;11627;51.322;22.816;2024-03-02T00:07:54;54.60;;;25.40;;
22922;SDS011;11627;51.322;22.816;2024-03-02T00:10:27;57.17;;;25.00;;
22922;SDS011;11627;51.322;22.816;2024-03-02T00:13:08;56.00;;;25.17;;
22922;SDS011;11627;51.322;22.816;2024-03-02T00:18:19;58.53;;;26.15;;
22922;SDS011;11627;51.322;22.816;2024-03-02T00:20:49;56.25;;;25.65;;
22922;SDS011;11627;51.322;22.816;2024-03-02T00:23:20;58.42;;;25.08;;
22922;SDS011;11627;51.322;22.816;2024-03-02T00:25:49;59.22;;;25.27;;
22922;SDS011;11627;51.322;22.816;2024-03-02T00:28:25;57.92;;;26.20;;
22922;SDS011;11627;51.322;22.816;2024-03-02T00:31:06;63.03;;;27.30;;
22922;SDS011;11627;51.322;22.816;2024-03-02T00:33:44;57.30;;;26.42;;
22922;SDS011;11627;51.322;22.816;2024-03-02T00:36:15;61.88;;;26.52;;
22922;SDS011;11627;51.322;22.816;2024-03-02T00:38:48;60.58;;;26.52;;
22922;SDS011;11627;51.322;22.816;2024-03-02T00:41:16;64.55;;;26.52;;
22922;SDS011;11627;51.322;22.816;2024-03-02T00:44:06;65.88;;;28.08;;
22922;SDS011;11627;51.322;22.816;2024-03-02T00:46:36;71.18;;;28.65;;
22922;SDS011;11627;51.322;22.816;2024-03-02T00:49:05;63.33;;;28.02;;
22922;SDS011;11627;51.322;22.816;2024-03-02T00:51:44;62.15;;;28.73;;
22922;SDS011;11627;51.322;22.816;2024-03-02T00:54:19;61.22;;;27.65;;
22922;SDS011;11627;51.322;22.816;2024-03-02T00:56:54;59.58;;;27.08;;
22922;SDS011;11627;51.322;22.816;2024-03-02T00:59:21;64.03;;;27.77;;
22922;SDS011;11627;51.322;22.816;2024-03-02T01:01:48;66.65;;;26.90;;
22922;SDS011;11627;51.322;22.816;2024-03-02T01:04:15;64.78;;;27.63;;
22922;SDS011;11627;51.322;22.816;2024-03-02T01:06:42;65.25;;;29.13;;
22922;SDS011;11627;51.322;22.816;2024-03-02T01:09:08;63.65;;;26.90;;
22922;SDS011;11627;51.322;22.816;2024-03-02T01:11:34;63.17;;;27.88;;
22922;SDS011;11627;51.322;22.816;2024-03-02T01:14:00;63.08;;;26.42;;
22922;SDS011;11627;51.322;22.816;2024-03-02T01:16:27;62.85;;;27.30;;
22922;SDS011;11627;51.322;22.816;2024-03-02T01:18:53;60.15;;;27.48;;
22922;SDS011;11627;51.322;22.816;2024-03-02T01:21:20;60.75;;;27.42;;
22922;SDS011;11627;51.322;22.816;2024-03-02T01:23:47;67.95;;;28.85;;
22922;SDS011;11627;51.322;22.816;2024-03-02T01:26:14;66.75;;;28.40;;
22922;SDS011;11627;51.322;22.816;2024-03-02T01:28:40;63.92;;;27.08;;
22922;SDS011;11627;51.322;22.816;2024-03-02T01:31:06;65.53;;;27.67;;
22922;SDS011;11627;51.322;22.816;2024-03-02T01:33:31;67.88;;;28.75;;
22922;SDS011;11627;51.322;22.816;2024-03-02T01:35:58;60.40;;;26.60;;
22922;SDS011;11627;51.322;22.816;2024-03-02T01:38:25;63.10;;;27.83;;
22922;SDS011;11627;51.322;22.816;2024-03-02T01:40:50;60.83;;;27.20;;
22922;SDS011;11627;51.322;22.816;2024-03-02T01:43:18;65.65;;;27.80;;
22922;SDS011;11627;51.322;22.816;2024-03-02T01:45:44;60.75;;;26.98;;
22922;SDS011;11627;51.322;22.816;2024-03-02T01:48:09;59.85;;;27.00;;
22922;SDS011;11627;51.322;22.816;2024-03-02T01:50:35;65.07;;;27.73;;
22922;SDS011;11627;51.322;22.816;2024-03-02T01:53:02;64.63;;;26.70;;
22922;SDS011;11627;51.322;22.816;2024-03-02T01:55:30;57.35;;;25.23;;
22922;SDS011;11627;51.322;22.816;2024-03-02T01:57:59;63.90;;;27.50;;
22922;SDS011;11627;51.322;22.816;2024-03-02T02:00:26;56.72;;;25.02;;
22922;SDS011;11627;51.322;22.816;2024-03-02T02:02:52;58.80;;;25.45;;
22922;SDS011;11627;51.322;22.816;2024-03-02T02:05:19;56.17;;;24.73;;
22922;SDS011;11627;51.322;22.816;2024-03-02T02:07:46;54.53;;;24.33;;
22922;SDS011;11627;51.322;22.816;2024-03-02T02:10:13;52.40;;;23.58;;
22922;SDS011;11627;51.322;22.816;2024-03-02T02:12:41;54.38;;;23.33;;
22922;SDS011;11627;51.322;22.816;2024-03-02T02:17:51;51.08;;;22.85;;
22922;SDS011;11627;51.322;22.816;2024-03-02T02:20:19;51.80;;;21.50;;
22922;SDS011;11627;51.322;22.816;2024-03-02T02:23:02;47.30;;;22.70;;
22922;SDS011;11627;51.322;22.816;2024-03-02T02:25:31;50.58;;;21.63;;
22922;SDS011;11627;51.322;22.816;2024-03-02T02:27:58;53.97;;;23.48;;
22922;SDS011;11627;51.322;22.816;2024-03-02T02:30:25;55.47;;;23.38;;
22922;SDS011;11627;51.322;22.816;2024-03-02T02:32:53;52.05;;;23.80;;
22922;SDS011;11627;51.322;22.816;2024-03-02T02:35:21;51.70;;;21.58;;
22922;SDS011;11627;51.322;22.816;2024-03-02T02:37:47;52.45;;;22.00;;
22922;SDS011;11627;51.322;22.816;2024-03-02T02:40:15;53.53;;;23.60;;
22922;SDS011;11627;51.322;22.816;2024-03-02T02:42:43;52.72;;;23.25;;
22922;SDS011;11627;51.322;22.816;2024-03-02T02:45:08;57.92;;;24.85;;
22922;SDS011;11627;51.322;22.816;2024-03-02T02:47:40;54.80;;;24.25;;
22922;SDS011;11627;51.322;22.816;2024-03-02T02:50:07;54.85;;;23.73;;
22922;SDS011;11627;51.322;22.816;2024-03-02T02:52:34;59.42;;;24.40;;
22922;SDS011;11627;51.322;22.816;2024-03-02T02:55:03;57.13;;;23.98;;
22922;SDS011;11627;51.322;22.816;2024-03-02T02:57:30;54.38;;;24.08;;
22922;SDS011;11627;51.322;22.816;2024-03-02T03:00:06;56.58;;;24.92;;
22922;SDS011;11627;51.322;22.816;2024-03-02T03:02:41;66.60;;;25.48;;
22922;SDS011;11627;51.322;22.816;2024-03-02T03:05:11;62.15;;;25.27;;
22922;SDS011;11627;51.322;22.816;2024-03-02T03:07:39;59.00;;;24.73;;
22922;SDS011;11627;51.322;22.816;2024-03-02T03:10:06;53.80;;;23.85;;
22922;SDS011;11627;51.322;22.816;2024-03-02T03:12:35;60.90;;;25.02;;
22922;SDS011;11627;51.322;22.816;2024-03-02T03:15:01;58.60;;;24.17;;
22922;SDS011;11627;51.322;22.816;2024-03-02T03:17:29;56.92;;;24.20;;
22922;SDS011;11627;51.322;22.816;2024-03-02T03:19:55;55.38;;;22.40;;
22922;SDS011;11627;51.322;22.816;2024-03-02T03:22:21;49.90;;;22.48;;
22922;SDS011;11627;51.322;22.816;2024-03-02T03:24:47;56.60;;;23.45;;
22922;SDS011;11627;51.322;22.816;2024-03-02T03:27:13;51.63;;;22.10;;
22922;SDS011;11627;51.322;22.816;2024-03-02T03:29:38;49.55;;;22.13;;
22922;SDS011;11627;51.322;22.816;2024-03-02T03:32:05;54.60;;;21.83;;
22922;SDS011;11627;51.322;22.816;2024-03-02T03:34:35;54.25;;;22.95;;
22922;SDS011;11627;51.322;22.816;2024-03-02T03:37:01;53.05;;;21.67;;
22922;SDS011;11627;51.322;22.816;2024-03-02T03:39:27;52.42;;;21.48;;
22922;SDS011;11627;51.322;22.816;2024-03-02T03:41:55;57.33;;;23.42;;
22922;SDS011;11627;51.322;22.816;2024-03-02T03:44:20;49.45;;;21.52;;
22922;SDS011;11627;51.322;22.816;2024-03-02T03:46:48;52.33;;;22.80;;
22922;SDS011;11627;51.322;22.816;2024-03-02T03:49:14;54.63;;;22.85;;
22922;SDS011;11627;51.322;22.816;2024-03-02T03:51:40;56.45;;;23.38;;
22922;SDS011;11627;51.322;22.816;2024-03-02T03:54:06;63.33;;;23.98;;
22922;SDS011;11627;51.322;22.816;2024-03-02T03:56:32;57.15;;;25.33;;
22922;SDS011;11627;51.322;22.816;2024-03-02T03:58:58;63.22;;;25.45;;
22922;SDS011;11627;51.322;22.816;2024-03-02T04:01:26;60.15;;;25.08;;
22922;SDS011;11627;51.322;22.816;2024-03-02T04:03:52;63.00;;;26.35;;
22922;SDS011;11627;51.322;22.816;2024-03-02T04:06:18;62.83;;;25.48;;
22922;SDS011;11627;51.322;22.816;2024-03-02T04:08:44;69.50;;;26.88;;
22922;SDS011;11627;51.322;22.816;2024-03-02T04:11:10;60.25;;;25.58;;
22922;SDS011;11627;51.322;22.816;2024-03-02T04:13:36;59.28;;;25.60;;
22922;SDS011;11627;51.322;22.816;2024-03-02T04:16:04;67.13;;;25.77;;
22922;SDS011;11627;51.322;22.816;2024-03-02T04:18:30;60.70;;;25.85;;
22922;SDS011;11627;51.322;22.816;2024-03-02T04:20:58;57.92;;;23.40;;
22922;SDS011;11627;51.322;22.816;2024-03-02T04:23:25;57.85;;;25.75;;
22922;SDS011;11627;51.322;22.816;2024-03-02T04:25:52;56.30;;;23.45;;
22922;SDS011;11627;51.322;22.816;2024-03-02T04:28:18;60.08;;;24.15;;
22922;SDS011;11627;51.322;22.816;2024-03-02T04:30:45;60.47;;;25.27;;
22922;SDS011;11627;51.322;22.816;2024-03-02T04:33:12;57.25;;;23.45;;
22922;SDS011;11627;51.322;22.816;2024-03-02T04:35:39;60.17;;;24.60;;
22922;SDS011;11627;51.322;22.816;2024-03-02T04:38:05;55.00;;;24.20;;
22922;SDS011;11627;51.322;22.816;2024-03-02T04:40:31;62.10;;;26.25;;
22922;SDS011;11627;51.322;22.816;2024-03-02T04:42:58;63.15;;;25.67;;
22922;SDS011;11627;51.322;22.816;2024-03-02T04:45:24;62.00;;;26.05;;
22922;SDS011;11627;51.322;22.816;2024-03-02T04:47:50;64.75;;;24.50;;
22922;SDS011;11627;51.322;22.816;2024-03-02T04:50:16;64.65;;;24.63;;
22922;SDS011;11627;51.322;22.816;2024-03-02T04:52:43;65.72;;;27.25;;
22922;SDS011;11627;51.322;22.816;2024-03-02T04:55:10;66.90;;;27.00;;
22922;SDS011;11627;51.322;22.816;2024-03-02T04:57:55;74.07;;;27.25;;
22922;SDS011;11627;51.322;22.816;2024-03-02T05:00:21;75.20;;;28.23;;
22922;SDS011;11627;51.322;22.816;2024-03-02T05:02:47;77.18;;;29.60;;
22922;SDS011;11627;51.322;22.816;2024-03-02T05:05:13;76.30;;;29.10;;
22922;SDS011;11627;51.322;22.816;2024-03-02T05:07:42;79.63;;;29.77;;
22922;SDS011;11627;51.322;22.816;2024-03-02T05:10:10;79.72;;;30.55;;
22922;SDS011;11627;51.322;22.816;2024-03-02T05:12:38;67.43;;;28.05;;
22922;SDS011;11627;51.322;22.816;2024-03-02T05:15:10;71.95;;;28.65;;
22922;SDS011;11627;51.322;22.816;2024-03-02T05:17:37;71.60;;;28.05;;
22922;SDS011;11627;51.322;22.816;2024-03-02T05:20:10;68.40;;;26.55;;
22922;SDS011;11627;51.322;22.816;2024-03-02T05:22:37;66.20;;;27.30;;
22922;SDS011;11627;51.322;22.816;2024-03-02T05:25:04;75.47;;;29.20;;
22922;SDS011;11627;51.322;22.816;2024-03-02T05:27:31;65.32;;;29.08;;
22922;SDS011;11627;51.322;22.816;2024-03-02T05:29:58;66.53;;;27.65;;
22922;SDS011;11627;51.322;22.816;2024-03-02T05:32:26;60.40;;;27.15;;
22922;SDS011;11627;51.322;22.816;2024-03-02T05:34:52;69.82;;;28.13;;
22922;SDS011;11627;51.322;22.816;2024-03-02T05:37:18;75.72;;;28.83;;
22922;SDS011;11627;51.322;22.816;2024-03-02T05:39:43;67.07;;;28.80;;
22922;SDS011;11627;51.322;22.816;2024-03-02T05:42:11;66.82;;;27.33;;
22922;SDS011;11627;51.322;22.816;2024-03-02T05:44:36;68.30;;;26.58;;
22922;SDS011;11627;51.322;22.816;2024-03-02T05:47:04;62.70;;;26.38;;
22922;SDS011;11627;51.322;22.816;2024-03-02T05:49:35;68.93;;;27.75;;
22922;SDS011;11627;51.322;22.816;2024-03-02T05:52:03;58.97;;;26.20;;
22922;SDS011;11627;51.322;22.816;2024-03-02T05:54:29;59.88;;;26.27;;
22922;SDS011;11627;51.322;22.816;2024-03-02T05:56:56;57.35;;;25.38;;
22922;SDS011;11627;51.322;22.816;2024-03-02T05:59:41;50.08;;;23.15;;
22922;SDS011;11627;51.322;22.816;2024-03-02T06:02:09;45.90;;;22.83;;
22922;SDS011;11627;51.322;22.816;2024-03-02T06:04:35;54.45;;;23.38;;
22922;SDS011;11627;51.322;22.816;2024-03-02T06:07:01;57.95;;;22.77;;
22922;SDS011;11627;51.322;22.816;2024-03-02T06:09:28;49.80;;;22.30;;
22922;SDS011;11627;51.322;22.816;2024-03-02T06:11:54;55.05;;;23.38;;
22922;SDS011;11627;51.322;22.816;2024-03-02T06:14:21;50.70;;;22.83;;
22922;SDS011;11627;51.322;22.816;2024-03-02T06:16:47;45.50;;;21.02;;
22922;SDS011;11627;51.322;22.816;2024-03-02T06:19:14;46.70;;;21.63;;
22922;SDS011;11627;51.322;22.816;2024-03-02T06:21:40;45.65;;;21.02;;
22922;SDS011;11627;51.322;22.816;2024-03-02T06:24:06;45.75;;;21.85;;
22922;SDS011;11627;51.322;22.816;2024-03-02T06:26:34;44.35;;;21.65;;
22922;SDS011;11627;51.322;22.816;2024-03-02T06:29:00;44.58;;;21.88;;
22922;SDS011;11627;51.322;22.816;2024-03-02T06:31:27;49.70;;;22.60;;
22922;SDS011;11627;51.322;22.816;2024-03-02T06:33:53;47.70;;;22.55;;
22922;SDS011;11627;51.322;22.816;2024-03-02T06:36:19;51.08;;;22.58;;
22922;SDS011;11627;51.322;22.816;2024-03-02T06:38:45;47.28;;;21.00;;
22922;SDS011;11627;51.322;22.816;2024-03-02T06:41:10;49.65;;;21.98;;
22922;SDS011;11627;51.322;22.816;2024-03-02T06:43:36;48.08;;;23.75;;
22922;SDS011;11627;51.322;22.816;2024-03-02T06:46:04;47.00;;;21.60;;
22922;SDS011;11627;51.322;22.816;2024-03-02T06:48:34;43.60;;;22.38;;
22922;SDS011;11627;51.322;22.816;2024-03-02T06:51:00;47.35;;;21.15;;
22922;SDS011;11627;51.322;22.816;2024-03-02T06:53:28;42.95;;;21.55;;
22922;SDS011;11627;51.322;22.816;2024-03-02T06:55:55;47.67;;;22.55;;
22922;SDS011;11627;51.322;22.816;2024-03-02T06:58:20;48.78;;;22.05;;
22922;SDS011;11627;51.322;22.816;2024-03-02T07:00:49;42.85;;;21.40;;
22922;SDS011;11627;51.322;22.816;2024-03-02T07:03:16;45.40;;;21.95;;
22922;SDS011;11627;51.322;22.816;2024-03-02T07:05:42;44.38;;;21.25;;
22922;SDS011;11627;51.322;22.816;2024-03-02T07:08:08;44.00;;;20.13;;
22922;SDS011;11627;51.322;22.816;2024-03-02T07:10:34;45.33;;;21.08;;
22922;SDS011;11627;51.322;22.816;2024-03-02T07:13:01;48.80;;;21.98;;
22922;SDS011;11627;51.322;22.816;2024-03-02T07:15:27;46.83;;;20.92;;
22922;SDS011;11627;51.322;22.816;2024-03-02T07:18:12;48.03;;;21.77;;
22922;SDS011;11627;51.322;22.816;2024-03-02T07:20:40;42.40;;;20.52;;
22922;SDS011;11627;51.322;22.816;2024-03-02T07:23:07;46.92;;;22.48;;
22922;SDS011;11627;51.322;22.816;2024-03-02T07:25:34;47.22;;;21.25;;
22922;SDS011;11627;51.322;22.816;2024-03-02T07:28:00;50.88;;;23.40;;
22922;SDS011;11627;51.322;22.816;2024-03-02T07:30:27;44.80;;;21.50;;
22922;SDS011;11627;51.322;22.816;2024-03-02T07:32:54;46.55;;;22.40;;
22922;SDS011;11627;51.322;22.816;2024-03-02T07:35:20;42.47;;;21.08;;
22922;SDS011;11627;51.322;22.816;2024-03-02T07:37:51;45.67;;;23.08;;
22922;SDS011;11627;51.322;22.816;2024-03-02T07:40:17;45.72;;;22.52;;
22922;SDS011;11627;51.322;22.816;2024-03-02T07:42:45;46.00;;;22.20;;
22922;SDS011;11627;51.322;22.816;2024-03-02T07:45:12;43.50;;;21.08;;
22922;SDS011;11627;51.322;22.816;2024-03-02T07:47:38;47.92;;;21.92;;
22922;SDS011;11627;51.322;22.816;2024-03-02T07:50:05;48.15;;;22.17;;
22922;SDS011;11627;51.322;22.816;2024-03-02T07:52:36;42.13;;;20.83;;
22922;SDS011;11627;51.322;22.816;2024-03-02T07:55:01;51.20;;;22.90;;
22922;SDS011;11627;51.322;22.816;2024-03-02T07:57:27;49.50;;;22.20;;
22922;SDS011;11627;51.322;22.816;2024-03-02T07:59:53;47.25;;;21.40;;
22922;SDS011;11627;51.322;22.816;2024-03-02T08:02:19;50.40;;;22.10;;
22922;SDS011;11627;51.322;22.816;2024-03-02T08:04:47;41.13;;;21.42;;
22922;SDS011;11627;51.322;22.816;2024-03-02T08:07:14;41.03;;;20.92;;
22922;SDS011;11627;51.322;22.816;2024-03-02T08:09:40;46.72;;;22.50;;
22922;SDS011;11627;51.322;22.816;2024-03-02T08:12:06;78.47;;;30.13;;
22922;SDS011;11627;51.322;22.816;2024-03-02T08:14:32;60.50;;;25.35;;
22922;SDS011;11627;51.322;22.816;2024-03-02T08:16:59;50.17;;;22.00;;
22922;SDS011;11627;51.322;22.816;2024-03-02T08:19:26;45.03;;;22.15;;
22922;SDS011;11627;51.322;22.816;2024-03-02T08:21:54;51.63;;;22.10;;
22922;SDS011;11627;51.322;22.816;2024-03-02T08:24:21;46.97;;;22.13;;
22922;SDS011;11627;51.322;22.816;2024-03-02T08:26:47;40.85;;;20.27;;
22922;SDS011;11627;51.322;22.816;2024-03-02T08:29:13;44.47;;;20.95;;
22922;SDS011;11627;51.322;22.816;2024-03-02T08:31:40;44.90;;;21.92;;
22922;SDS011;11627;51.322;22.816;2024-03-02T08:34:06;46.80;;;21.77;;
22922;SDS011;11627;51.322;22.816;2024-03-02T08:36:32;41.72;;;21.17;;
22922;SDS011;11627;51.322;22.816;2024-03-02T08:38:57;47.05;;;21.98;;
22922;SDS011;11627;51.322;22.816;2024-03-02T08:41:23;49.47;;;21.80;;
22922;SDS011;11627;51.322;22.816;2024-03-02T08:43:49;44.78;;;20.80;;
22922;SDS011;11627;51.322;22.816;2024-03-02T08:46:15;48.65;;;22.00;;
22922;SDS011;11627;51.322;22.816;2024-03-02T08:48:41;47.45;;;21.02;;
22922;SDS011;11627;51.322;22.816;2024-03-02T08:51:07;40.63;;;20.63;;
22922;SDS011;11627;51.322;22.816;2024-03-02T08:53:36;42.70;;;21.50;;
22922;SDS011;11627;51.322;22.816;2024-03-02T08:56:04;48.35;;;21.38;;
22922;SDS011;11627;51.322;22.816;2024-03-02T08:58:30;42.97;;;20.75;;
22922;SDS011;11627;51.322;22.816;2024-03-02T09:00:57;40.55;;;19.83;;
22922;SDS011;11627;51.322;22.816;2024-03-02T09:03:23;40.70;;;20.25;;
22922;SDS011;11627;51.322;22.816;2024-03-02T09:05:50;42.58;;;21.38;;
22922;SDS011;11627;51.322;22.816;2024-03-02T09:08:17;42.85;;;21.38;;
22922;SDS011;11627;51.322;22.816;2024-03-02T09:10:44;40.20;;;21.00;;
22922;SDS011;11627;51.322;22.816;2024-03-02T09:13:11;47.67;;;21.38;;
22922;SDS011;11627;51.322;22.816;2024-03-02T09:15:37;40.83;;;20.38;;
22922;SDS011;11627;51.322;22.816;2024-03-02T09:18:04;38.65;;;20.17;;
22922;SDS011;11627;51.322;22.816;2024-03-02T09:20:31;42.25;;;19.35;;
22922;SDS011;11627;51.322;22.816;2024-03-02T09:23:00;40.75;;;20.58;;
22922;SDS011;11627;51.322;22.816;2024-03-02T09:25:26;41.88;;;19.40;;
22922;SDS011;11627;51.322;22.816;2024-03-02T09:27:54;43.45;;;20.13;;
22922;SDS011;11627;51.322;22.816;2024-03-02T09:30:20;38.03;;;19.88;;
22922;SDS011;11627;51.322;22.816;2024-03-02T09:32:46;38.50;;;19.98;;
22922;SDS011;11627;51.322;22.816;2024-03-02T09:35:13;39.00;;;19.75;;
22922;SDS011;11627;51.322;22.816;2024-03-02T09:37:39;40.92;;;20.63;;
22922;SDS011;11627;51.322;22.816;2024-03-02T09:40:04;42.03;;;20.40;;
22922;SDS011;11627;51.322;22.816;2024-03-02T09:42:31;38.55;;;20.15;;
22922;SDS011;11627;51.322;22.816;2024-03-02T09:44:57;41.08;;;19.50;;
22922;SDS011;11627;51.322;22.816;2024-03-02T09:47:25;40.00;;;19.50;;
22922;SDS011;11627;51.322;22.816;2024-03-02T09:49:51;41.78;;;20.40;;
22922;SDS011;11627;51.322;22.816;2024-03-02T09:52:18;36.17;;;19.42;;
22922;SDS011;11627;51.322;22.816;2024-03-02T09:54:47;40.72;;;20.02;;
22922;SDS011;11627;51.322;22.816;2024-03-02T09:57:15;39.03;;;19.98;;
22922;SDS011;11627;51.322;22.816;2024-03-02T09:59:41;43.45;;;22.05;;
22922;SDS011;11627;51.322;22.816;2024-03-02T10:02:10;42.20;;;22.33;;
22922;SDS011;11627;51.322;22.816;2024-03-02T10:04:37;43.15;;;21.48;;
22922;SDS011;11627;51.322;22.816;2024-03-02T10:07:09;39.65;;;21.58;;
22922;SDS011;11627;51.322;22.816;2024-03-02T10:09:40;41.75;;;20.67;;
22922;SDS011;11627;51.322;22.816;2024-03-02T10:12:07;41.05;;;21.15;;
22922;SDS011;11627;51.322;22.816;2024-03-02T10:14:37;45.22;;;21.85;;
22922;SDS011;11627;51.322;22.816;2024-03-02T10:17:04;39.42;;;21.48;;
22922;SDS011;11627;51.322;22.816;2024-03-02T10:19:35;41.83;;;21.00;;
22922;SDS011;11627;51.322;22.816;2024-03-02T10:22:04;41.72;;;21.95;;
22922;SDS011;11627;51.322;22.816;2024-03-02T10:24:49;36.97;;;20.67;;
22922;SDS011;11627;51.322;22.816;2024-03-02T10:30:00;40.17;;;21.20;;
22922;SDS011;11627;51.322;22.816;2024-03-02T10:32:31;48.92;;;23.52;;
22922;SDS011;11627;51.322;22.816;2024-03-02T10:35:17;40.60;;;20.85;;
22922;SDS011;11627;51.322;22.816;2024-03-02T10:37:44;46.35;;;20.42;;
22922;SDS011;11627;51.322;22.816;2024-03-02T10:40:10;44.03;;;20.77;;
22922;SDS011;11627;51.322;22.816;2024-03-02T10:42:37;39.78;;;21.40;;
22922;SDS011;11627;51.322;22.816;2024-03-02T10:45:07;38.85;;;19.77;;
22922;SDS011;11627;51.322;22.816;2024-03-02T10:47:38;41.67;;;20.17;;
22922;SDS011;11627;51.322;22.816;2024-03-02T10:50:06;37.63;;;20.50;;
22922;SDS011;11627;51.322;22.816;2024-03-02T10:52:38;37.88;;;20.95;;
22922;SDS011;11627;51.322;22.816;2024-03-02T10:55:08;41.33;;;21.35;;
22922;SDS011;11627;51.322;22.816;2024-03-02T11:00:18;44.95;;;22.98;;
22922;SDS011;11627;51.322;22.816;2024-03-02T11:02:50;50.97;;;25.35;;
22922;SDS011;11627;51.322;22.816;2024-03-02T11:05:26;46.28;;;25.73;;
22922;SDS011;11627;51.322;22.816;2024-03-02T11:07:59;46.45;;;22.63;;
22922;SDS011;11627;51.322;22.816;2024-03-02T11:10:32;40.10;;;21.05;;
22922;SDS011;11627;51.322;22.816;2024-03-02T11:13:08;33.08;;;18.30;;
22922;SDS011;11627;51.322;22.816;2024-03-02T11:15:37;39.75;;;19.85;;
22922;SDS011;11627;51.322;22.816;2024-03-02T11:18:05;34.05;;;18.27;;
22922;SDS011;11627;51.322;22.816;2024-03-02T11:20:37;41.03;;;20.02;;
22922;SDS011;11627;51.322;22.816;2024-03-02T11:23:08;34.60;;;18.42;;
22922;SDS011;11627;51.322;22.816;2024-03-02T11:25:34;33.63;;;18.90;;
22922;SDS011;11627;51.322;22.816;2024-03-02T11:28:07;35.08;;;18.17;;
22922;SDS011;11627;51.322;22.816;2024-03-02T11:38:10;32.90;;;17.70;;
22922;SDS011;11627;51.322;22.816;2024-03-02T11:40:36;32.42;;;17.33;;
22922;SDS011;11627;51.322;22.816;2024-03-02T11:43:06;36.20;;;17.45;;
22922;SDS011;11627;51.322;22.816;2024-03-02T11:45:36;37.53;;;18.33;;
22922;SDS011;11627;51.322;22.816;2024-03-02T11:48:08;37.65;;;18.77;;
22922;SDS011;11627;51.322;22.816;2024-03-02T11:50:41;34.85;;;18.05;;
22922;SDS011;11627;51.322;22.816;2024-03-02T11:53:15;33.65;;;18.70;;
22922;SDS011;11627;51.322;22.816;2024-03-02T11:55:45;35.15;;;18.55;;
22922;SDS011;11627;51.322;22.816;2024-03-02T11:58:12;32.25;;;18.13;;
22922;SDS011;11627;51.322;22.816;2024-03-02T12:00:40;40.40;;;18.38;;
22922;SDS011;11627;51.322;22.816;2024-03-02T12:03:12;30.60;;;16.83;;
22922;SDS011;11627;51.322;22.816;2024-03-02T12:05:40;35.35;;;17.30;;
22922;SDS011;11627;51.322;22.816;2024-03-02T12:08:08;29.92;;;17.73;;
22922;SDS011;11627;51.322;22.816;2024-03-02T12:10:37;33.70;;;17.77;;
22922;SDS011;11627;51.322;22.816;2024-03-02T12:13:04;32.78;;;17.15;;
22922;SDS011;11627;51.322;22.816;2024-03-02T12:15:34;36.75;;;18.10;;
22922;SDS011;11627;51.322;22.816;2024-03-02T12:18:02;36.40;;;17.70;;
22922;SDS011;11627;51.322;22.816;2024-03-02T12:20:29;30.85;;;17.85;;
22922;SDS011;11627;51.322;22.816;2024-03-02T12:22:57;37.95;;;18.80;;
22922;SDS011;11627;51.322;22.816;2024-03-02T12:25:27;32.63;;;18.38;;
22922;SDS011;11627;51.322;22.816;2024-03-02T12:27:57;36.33;;;18.08;;
22922;SDS011;11627;51.322;22.816;2024-03-02T12:30:29;33.58;;;17.33;;
22922;SDS011;11627;51.322;22.816;2024-03-02T12:32:56;32.22;;;16.38;;
22922;SDS011;11627;51.322;22.816;2024-03-02T12:35:22;30.73;;;17.77;;
22922;SDS011;11627;51.322;22.816;2024-03-02T12:37:51;33.75;;;17.88;;
22922;SDS011;11627;51.322;22.816;2024-03-02T12:40:19;36.97;;;19.40;;
22922;SDS011;11627;51.322;22.816;2024-03-02T12:42:47;36.70;;;19.38;;
22922;SDS011;11627;51.322;22.816;2024-03-02T12:45:14;40.00;;;18.63;;
22922;SDS011;11627;51.322;22.816;2024-03-02T12:47:41;32.97;;;18.25;;
22922;SDS011;11627;51.322;22.816;2024-03-02T12:50:08;32.08;;;18.23;;
22922;SDS011;11627;51.322;22.816;2024-03-02T12:52:35;41.03;;;18.63;;
22922;SDS011;11627;51.322;22.816;2024-03-02T12:55:05;33.65;;;18.50;;
22922;SDS011;11627;51.322;22.816;2024-03-02T12:57:32;32.67;;;17.27;;
22922;SDS011;11627;51.322;22.816;2024-03-02T13:00:05;35.10;;;19.13;;
22922;SDS011;11627;51.322;22.816;2024-03-02T13:02:41;37.38;;;18.77;;
22922;SDS011;11627;51.322;22.816;2024-03-02T13:05:08;31.48;;;17.67;;
22922;SDS011;11627;51.322;22.816;2024-03-02T13:07:37;33.05;;;17.52;;
22922;SDS011;11627;51.322;22.816;2024-03-02T13:10:04;32.60;;;17.58;;
22922;SDS011;11627;51.322;22.816;2024-03-02T13:12:33;31.13;;;16.75;;
22922;SDS011;11627;51.322;22.816;2024-03-02T13:15:02;27.95;;;16.50;;
22922;SDS011;11627;51.322;22.816;2024-03-02T13:17:30;33.33;;;16.92;;
22922;SDS011;11627;51.322;22.816;2024-03-02T13:19:58;35.15;;;17.30;;
22922;SDS011;11627;51.322;22.816;2024-03-02T13:22:26;30.98;;;17.50;;
22922;SDS011;11627;51.322;22.816;2024-03-02T13:24:52;33.60;;;16.95;;
22922;SDS011;11627;51.322;22.816;2024-03-02T13:27:19;29.83;;;17.08;;
22922;SDS011;11627;51.322;22.816;2024-03-02T13:29:50;33.30;;;17.08;;
22922;SDS011;11627;51.322;22.816;2024-03-02T13:32:16;28.75;;;17.25;;
22922;SDS011;11627;51.322;22.816;2024-03-02T13:34:45;28.00;;;16.95;;
22922;SDS011;11627;51.322;22.816;2024-03-02T13:37:12;37.65;;;18.08;;
22922;SDS011;11627;51.322;22.816;2024-03-02T13:39:39;32.03;;;18.13;;
22922;SDS011;11627;51.322;22.816;2024-03-02T13:42:08;31.30;;;17.08;;
22922;SDS011;11627;51.322;22.816;2024-03-02T13:44:35;35.25;;;18.52;;
22922;SDS011;11627;51.322;22.816;2024-03-02T13:47:03;32.80;;;18.00;;
22922;SDS011;11627;51.322;22.816;2024-03-02T13:49:31;32.45;;;17.80;;
22922;SDS011;11627;51.322;22.816;2024-03-02T13:52:04;36.53;;;18.67;;
22922;SDS011;11627;51.322;22.816;2024-03-02T13:54:45;28.45;;;16.75;;
22922;SDS011;11627;51.322;22.816;2024-03-02T13:57:13;27.27;;;15.88;;
22922;SDS011;11627;51.322;22.816;2024-03-02T13:59:41;30.95;;;16.92;;
22922;SDS011;11627;51.322;22.816;2024-03-02T14:02:09;28.25;;;16.38;;
22922;SDS011;11627;51.322;22.816;2024-03-02T14:04:35;29.08;;;16.23;;
22922;SDS011;11627;51.322;22.816;2024-03-02T14:07:04;26.10;;;16.05;;
22922;SDS011;11627;51.322;22.816;2024-03-02T14:09:33;30.25;;;16.80;;
22922;SDS011;11627;51.322;22.816;2024-03-02T14:12:01;29.95;;;16.20;;
22922;SDS011;11627;51.322;22.816;2024-03-02T14:14:30;30.00;;;16.75;;
22922;SDS011;11627;51.322;22.816;2024-03-02T14:16:58;32.03;;;16.67;;
22922;SDS011;11627;51.322;22.816;2024-03-02T14:19:31;33.67;;;18.60;;
22922;SDS011;11627;51.322;22.816;2024-03-02T14:21:58;32.25;;;17.60;;
22922;SDS011;11627;51.322;22.816;2024-03-02T14:24:24;36.30;;;17.98;;
22922;SDS011;11627;51.322;22.816;2024-03-02T14:26:52;34.40;;;18.33;;
22922;SDS011;11627;51.322;22.816;2024-03-02T14:29:18;35.60;;;18.10;;
22922;SDS011;11627;51.322;22.816;2024-03-02T14:31:45;36.95;;;18.27;;